createdAt,value
2017-12-17T00:01:09.543Z,1013.56
2017-12-17T00:02:09.517Z,1013.54
2017-12-17T00:04:02.969Z,1013.54
2017-12-17T00:05:02.956Z,1013.51
2017-12-17T00:06:57.573Z,1013.53
2017-12-17T00:07:57.370Z,1013.52
2017-12-17T00:09:50.810Z,1013.58
2017-12-17T00:10:51.330Z,1013.57
2017-12-17T00:12:46.237Z,1013.57
2017-12-17T00:13:45.255Z,1013.59
2017-12-17T00:15:40.877Z,1013.60
2017-12-17T00:16:39.696Z,1013.61
2017-12-17T00:18:33.134Z,1013.58
2017-12-17T00:19:33.118Z,1013.63
2017-12-17T00:21:27.545Z,1013.56
2017-12-17T00:22:28.068Z,1013.61
2017-12-17T00:24:23.467Z,1013.58
2017-12-17T00:25:23.478Z,1013.58
2017-12-17T00:27:18.924Z,1013.59
2017-12-17T00:28:17.985Z,1013.56
2017-12-17T00:30:11.357Z,1013.54
2017-12-17T00:31:11.366Z,1013.54
2017-12-17T00:33:05.782Z,1013.62
2017-12-17T00:34:05.780Z,1013.62
2017-12-17T00:36:00.198Z,1013.60
2017-12-17T00:37:00.724Z,1013.67
2017-12-17T00:38:54.648Z,1013.65
2017-12-17T00:39:54.619Z,1013.68
2017-12-17T00:41:48.097Z,1013.67
2017-12-17T00:42:48.033Z,1013.64
2017-12-17T00:44:42.989Z,1013.68
2017-12-17T00:45:41.583Z,1013.64
2017-12-17T00:47:36.491Z,1013.66
2017-12-17T00:48:36.488Z,1013.65
2017-12-17T00:50:30.936Z,1013.64
2017-12-17T00:51:30.376Z,1013.69
2017-12-17T00:53:24.813Z,1013.64
2017-12-17T00:54:24.814Z,1013.68
2017-12-17T00:56:19.283Z,1013.71
2017-12-17T00:57:19.218Z,1013.75
2017-12-17T00:59:12.690Z,1013.73
2017-12-17T01:00:12.650Z,1013.76
2017-12-17T01:02:07.600Z,1013.75
2017-12-17T01:03:07.094Z,1013.77
2017-12-17T01:05:00.522Z,1013.81
2017-12-17T01:06:00.533Z,1013.86
2017-12-17T01:07:55.990Z,1013.90
2017-12-17T01:08:54.942Z,1013.90
2017-12-17T01:10:51.391Z,1013.90
2017-12-17T01:11:50.832Z,1013.92
2017-12-17T01:13:45.780Z,1013.97
2017-12-17T01:14:45.269Z,1013.98
2017-12-17T01:16:38.708Z,1014.02
2017-12-17T01:17:38.702Z,1013.96
2017-12-17T01:19:33.142Z,1013.97
2017-12-17T01:20:33.142Z,1014.02
2017-12-17T01:22:26.568Z,1014.03
2017-12-17T01:23:26.550Z,1014.03
2017-12-17T01:25:21.000Z,1014.01
2017-12-17T01:26:21.498Z,1014.02
2017-12-17T01:28:14.929Z,1014.05
2017-12-17T01:29:14.414Z,1014.04
2017-12-17T01:31:08.870Z,1014.11
2017-12-17T01:32:08.820Z,1014.14
2017-12-17T01:34:03.230Z,1014.20
2017-12-17T01:35:03.218Z,1014.18
2017-12-17T01:36:57.646Z,1014.22
2017-12-17T01:37:57.659Z,1014.22
2017-12-17T01:39:52.109Z,1014.28
2017-12-17T01:40:52.092Z,1014.27
2017-12-17T01:42:46.506Z,1014.21
2017-12-17T01:43:47.043Z,1014.21
2017-12-17T01:45:40.921Z,1014.18
2017-12-17T01:46:40.920Z,1014.22
2017-12-17T01:48:35.375Z,1014.20
2017-12-17T01:49:35.354Z,1014.19
2017-12-17T01:51:30.301Z,1014.20
2017-12-17T01:52:29.784Z,1014.22
2017-12-17T01:54:24.232Z,1014.21
2017-12-17T01:55:24.201Z,1014.17
2017-12-17T01:57:19.139Z,1014.23
2017-12-17T01:58:18.604Z,1014.20
2017-12-17T02:00:14.491Z,1014.18
2017-12-17T02:01:13.051Z,1014.20
2017-12-17T02:03:06.472Z,1014.17
2017-12-17T02:04:06.456Z,1014.25
2017-12-17T02:06:00.405Z,1014.25
2017-12-17T02:07:00.402Z,1014.31
2017-12-17T02:08:54.601Z,1014.32
2017-12-17T02:09:54.307Z,1014.38
2017-12-17T02:11:49.680Z,1014.36
2017-12-17T02:12:48.728Z,1014.40
2017-12-17T02:14:43.145Z,1014.43
2017-12-17T02:15:43.662Z,1014.47
2017-12-17T02:17:37.075Z,1014.47
2017-12-17T02:18:36.563Z,1014.42
2017-12-17T02:20:31.536Z,1014.47
2017-12-17T02:21:31.510Z,1014.44
2017-12-17T02:23:25.408Z,1014.46
2017-12-17T02:24:24.392Z,1014.42
2017-12-17T02:26:18.804Z,1014.47
2017-12-17T02:27:19.325Z,1014.53
2017-12-17T02:29:14.280Z,1014.53
2017-12-17T02:30:13.238Z,1014.58
2017-12-17T02:32:08.191Z,1014.51
2017-12-17T02:33:07.668Z,1014.54
2017-12-17T02:35:02.608Z,1014.56
2017-12-17T02:36:02.615Z,1014.53
2017-12-17T02:37:56.557Z,1014.53
2017-12-17T02:38:57.040Z,1014.55
2017-12-17T02:40:49.924Z,1014.57
2017-12-17T02:41:49.913Z,1014.57
2017-12-17T02:43:44.343Z,1014.58
2017-12-17T02:44:44.344Z,1014.55
2017-12-17T02:46:38.797Z,1014.56
2017-12-17T02:47:38.773Z,1014.58
2017-12-17T02:49:33.191Z,1014.60
2017-12-17T02:50:33.713Z,1014.61
2017-12-17T02:52:27.587Z,1014.63
2017-12-17T02:53:27.611Z,1014.61
2017-12-17T02:55:22.554Z,1014.64
2017-12-17T02:56:22.019Z,1014.67
2017-12-17T02:58:16.963Z,1014.67
2017-12-17T02:59:15.420Z,1014.69
2017-12-17T03:01:09.882Z,1014.71
2017-12-17T03:02:09.849Z,1014.72
2017-12-17T03:04:04.309Z,1014.77
2017-12-17T03:05:04.799Z,1014.74
2017-12-17T03:06:58.225Z,1014.80
2017-12-17T03:07:58.229Z,1014.82
2017-12-17T03:09:52.136Z,1014.87
2017-12-17T03:10:52.133Z,1014.85
2017-12-17T03:12:48.070Z,1014.84
2017-12-17T03:13:46.543Z,1014.86
2017-12-17T03:15:41.006Z,1014.88
2017-12-17T03:16:40.962Z,1014.91
2017-12-17T03:18:36.433Z,1014.87
2017-12-17T03:19:35.389Z,1014.89
2017-12-17T03:21:29.329Z,1014.92
2017-12-17T03:22:28.805Z,1014.95
2017-12-17T03:24:23.743Z,1014.99
2017-12-17T03:25:23.207Z,1015.00
2017-12-17T03:27:16.651Z,1015.00
2017-12-17T03:28:17.156Z,1015.00
2017-12-17T03:30:11.093Z,1014.98
2017-12-17T03:31:11.051Z,1015.00
2017-12-17T03:33:05.484Z,1014.97
2017-12-17T03:34:05.478Z,1015.02
2017-12-17T03:35:58.903Z,1015.08
2017-12-17T03:36:58.910Z,1015.12
2017-12-17T03:38:53.854Z,1015.07
2017-12-17T03:39:53.426Z,1015.07
2017-12-17T03:41:47.772Z,1015.13
2017-12-17T03:42:47.766Z,1015.10
2017-12-17T03:44:41.196Z,1015.13
2017-12-17T03:45:41.185Z,1015.13
2017-12-17T03:47:36.622Z,1015.10
2017-12-17T03:48:35.617Z,1015.11
2017-12-17T03:50:30.046Z,1015.13
2017-12-17T03:51:30.013Z,1015.10
2017-12-17T03:53:24.480Z,1015.11
2017-12-17T03:54:24.962Z,1015.10
2017-12-17T03:56:17.882Z,1015.11
2017-12-17T03:57:17.863Z,1015.15
2017-12-17T03:59:13.308Z,1015.12
2017-12-17T04:00:12.325Z,1015.12
2017-12-17T04:02:05.739Z,1015.15
2017-12-17T04:03:05.740Z,1015.13
2017-12-17T04:05:00.196Z,1015.11
2017-12-17T04:06:00.169Z,1015.12
2017-12-17T04:07:55.126Z,1015.10
2017-12-17T04:08:54.581Z,1015.15
2017-12-17T04:10:49.537Z,1015.16
2017-12-17T04:11:48.996Z,1015.19
2017-12-17T04:13:43.437Z,1015.17
2017-12-17T04:14:43.407Z,1015.21
2017-12-17T04:16:37.360Z,1015.18
2017-12-17T04:17:36.832Z,1015.19
2017-12-17T04:19:31.261Z,1015.20
2017-12-17T04:20:31.269Z,1015.20
2017-12-17T04:22:25.707Z,1015.18
2017-12-17T04:23:25.690Z,1015.20
2017-12-17T04:25:21.638Z,1015.27
2017-12-17T04:26:20.639Z,1015.23
2017-12-17T04:28:14.545Z,1015.27
2017-12-17T04:29:15.061Z,1015.30
2017-12-17T04:31:08.944Z,1015.33
2017-12-17T04:32:08.934Z,1015.33
2017-12-17T04:34:03.396Z,1015.39
2017-12-17T04:35:03.351Z,1015.39
2017-12-17T04:36:57.787Z,1015.38
2017-12-17T04:37:58.292Z,1015.33
2017-12-17T04:39:51.186Z,1015.31
2017-12-17T04:40:51.191Z,1015.34
2017-12-17T04:42:47.151Z,1015.39
2017-12-17T04:43:47.109Z,1015.48
2017-12-17T04:45:41.564Z,1015.46
2017-12-17T04:46:41.558Z,1015.46
2017-12-17T04:48:37.046Z,1015.47
2017-12-17T04:49:34.993Z,1015.53
2017-12-17T04:51:29.418Z,1015.52
2017-12-17T04:52:29.444Z,1015.49
2017-12-17T04:54:23.855Z,1015.50
2017-12-17T04:55:23.862Z,1015.55
2017-12-17T04:57:18.310Z,1015.53
2017-12-17T04:58:18.808Z,1015.57
2017-12-17T05:00:12.701Z,1015.61
2017-12-17T05:01:13.223Z,1015.63
2017-12-17T05:03:08.572Z,1015.62
2017-12-17T05:04:07.629Z,1015.67
2017-12-17T05:06:01.545Z,1015.70
2017-12-17T05:07:02.089Z,1015.72
2017-12-17T05:08:55.005Z,1015.81
2017-12-17T05:09:54.969Z,1015.80
2017-12-17T05:11:50.429Z,1015.85
2017-12-17T05:12:49.419Z,1015.81
2017-12-17T05:14:43.862Z,1015.80
2017-12-17T05:15:43.852Z,1015.78
2017-12-17T05:17:38.262Z,1015.81
2017-12-17T05:18:38.800Z,1015.84
2017-12-17T05:20:31.669Z,1015.86
2017-12-17T05:21:31.662Z,1015.82
2017-12-17T05:23:25.108Z,1015.90
2017-12-17T05:24:25.082Z,1015.84
2017-12-17T05:26:20.028Z,1015.86
2017-12-17T05:27:19.520Z,1015.84
2017-12-17T05:29:14.462Z,1015.85
2017-12-17T05:30:13.953Z,1015.94
2017-12-17T05:32:07.422Z,1015.92
2017-12-17T05:33:07.406Z,1015.93
2017-12-17T05:35:01.838Z,1015.91
2017-12-17T05:36:01.831Z,1015.94
2017-12-17T05:37:55.254Z,1015.99
2017-12-17T05:38:55.263Z,1015.99
2017-12-17T05:40:49.664Z,1016.00
2017-12-17T05:41:50.201Z,1016.01
2017-12-17T05:43:44.051Z,1015.96
2017-12-17T05:44:44.055Z,1015.95
2017-12-17T05:46:38.521Z,1016.00
2017-12-17T05:47:38.490Z,1015.95
2017-12-17T05:49:32.920Z,1015.98
2017-12-17T05:50:32.906Z,1015.95
2017-12-17T05:52:27.327Z,1015.99
2017-12-17T05:53:27.322Z,1015.96
2017-12-17T05:55:21.802Z,1015.98
2017-12-17T05:56:21.758Z,1016.00
2017-12-17T05:58:15.216Z,1016.04
2017-12-17T05:59:15.182Z,1016.09
2017-12-17T06:01:09.143Z,1016.12
2017-12-17T06:02:08.594Z,1016.15
2017-12-17T06:04:03.013Z,1016.20
2017-12-17T06:05:03.006Z,1016.22
2017-12-17T06:06:56.977Z,1016.23
2017-12-17T06:07:56.427Z,1016.27
2017-12-17T06:09:50.901Z,1016.23
2017-12-17T06:10:50.853Z,1016.25
2017-12-17T06:12:44.801Z,1016.25
2017-12-17T06:13:44.325Z,1016.26
2017-12-17T06:15:38.734Z,1016.29
2017-12-17T06:16:38.701Z,1016.32
2017-12-17T06:18:33.118Z,1016.35
2017-12-17T06:19:33.120Z,1016.35
2017-12-17T06:21:27.557Z,1016.36
2017-12-17T06:22:27.532Z,1016.40
2017-12-17T06:24:22.492Z,1016.37
2017-12-17T06:25:21.977Z,1016.39
2017-12-17T06:27:16.912Z,1016.41
2017-12-17T06:28:16.384Z,1016.44
2017-12-17T06:30:10.820Z,1016.43
2017-12-17T06:31:10.791Z,1016.44
2017-12-17T06:33:04.743Z,1016.47
2017-12-17T06:34:04.201Z,1016.50
2017-12-17T06:35:59.156Z,1016.49
2017-12-17T06:36:58.624Z,1016.48
2017-12-17T06:38:53.583Z,1016.56
2017-12-17T06:39:53.059Z,1016.56
2017-12-17T06:41:47.521Z,1016.61
2017-12-17T06:42:47.494Z,1016.60
2017-12-17T06:44:42.442Z,1016.63
2017-12-17T06:45:41.910Z,1016.62
2017-12-17T06:47:35.340Z,1016.67
2017-12-17T06:48:35.324Z,1016.70
2017-12-17T06:50:30.286Z,1016.73
2017-12-17T06:51:28.722Z,1016.72
2017-12-17T06:53:23.169Z,1016.77
2017-12-17T06:54:23.147Z,1016.73
2017-12-17T06:56:17.573Z,1016.78
2017-12-17T06:57:17.560Z,1016.78
2017-12-17T06:59:11.998Z,1016.75
2017-12-17T07:00:12.006Z,1016.79
2017-12-17T07:02:06.463Z,1016.85
2017-12-17T07:03:06.942Z,1016.81
2017-12-17T07:05:00.843Z,1016.84
2017-12-17T07:06:00.828Z,1016.80
2017-12-17T07:07:55.286Z,1016.80
2017-12-17T07:08:55.785Z,1016.88
2017-12-17T07:10:49.221Z,1016.81
2017-12-17T07:11:48.662Z,1016.83
2017-12-17T07:13:43.094Z,1016.87
2017-12-17T07:14:43.091Z,1016.85
2017-12-17T07:16:36.518Z,1016.87
2017-12-17T07:17:36.500Z,1016.90
2017-12-17T07:19:29.974Z,1016.96
2017-12-17T07:20:29.947Z,1016.97
2017-12-17T07:22:24.395Z,1016.99
2017-12-17T07:23:24.366Z,1017.06
2017-12-17T07:25:17.821Z,1017.02
2017-12-17T07:26:17.793Z,1017.05
2017-12-17T07:28:11.198Z,1017.10
2017-12-17T07:29:11.208Z,1017.14
2017-12-17T07:31:05.607Z,1017.16
2017-12-17T07:32:05.613Z,1017.13
2017-12-17T07:33:59.033Z,1017.18
2017-12-17T07:34:59.032Z,1017.17
2017-12-17T07:36:52.485Z,1017.23
2017-12-17T07:37:52.459Z,1017.25
2017-12-17T07:39:47.387Z,1017.25
2017-12-17T07:40:46.862Z,1017.22
2017-12-17T07:42:41.290Z,1017.30
2017-12-17T07:43:41.281Z,1017.30
2017-12-17T07:45:35.698Z,1017.37
2017-12-17T07:46:35.682Z,1017.39
2017-12-17T07:48:29.178Z,1017.40
2017-12-17T07:49:29.126Z,1017.45
2017-12-17T07:51:23.521Z,1017.53
2017-12-17T07:52:23.517Z,1017.51
2017-12-17T07:54:18.457Z,1017.60
2017-12-17T07:55:17.924Z,1017.62
2017-12-17T07:57:11.873Z,1017.71
2017-12-17T07:58:11.339Z,1017.71
2017-12-17T08:00:05.758Z,1017.79
2017-12-17T08:01:05.752Z,1017.79
2017-12-17T08:03:00.180Z,1017.84
2017-12-17T08:04:00.182Z,1017.78
2017-12-17T08:05:56.124Z,1017.82
2017-12-17T08:06:54.619Z,1017.88
2017-12-17T08:08:49.575Z,1017.84
2017-12-17T08:09:49.980Z,1017.84
2017-12-17T08:11:42.461Z,1017.81
2017-12-17T08:12:44.018Z,1017.78
2017-12-17T08:14:37.913Z,1017.85
2017-12-17T08:15:38.452Z,1017.89
2017-12-17T08:17:31.084Z,1017.92
2017-12-17T08:18:31.548Z,1017.91
2017-12-17T08:20:25.370Z,1017.90
2017-12-17T08:21:25.906Z,1017.90
2017-12-17T08:23:18.780Z,1017.90
2017-12-17T08:24:18.803Z,1017.93
2017-12-17T08:26:12.227Z,1017.94
2017-12-17T08:27:12.740Z,1017.94
2017-12-17T08:29:06.648Z,1017.96
2017-12-17T08:30:07.158Z,1017.98
2017-12-17T08:32:01.097Z,1018.02
2017-12-17T08:33:01.604Z,1018.06
2017-12-17T08:34:55.522Z,1018.09
2017-12-17T08:35:56.017Z,1018.14
2017-12-17T08:37:48.965Z,1018.23
2017-12-17T08:38:48.926Z,1018.19
2017-12-17T08:40:43.871Z,1018.23
2017-12-17T08:41:43.313Z,1018.21
2017-12-17T08:43:37.737Z,1018.23
2017-12-17T08:44:37.748Z,1018.30
2017-12-17T08:46:32.189Z,1018.32
2017-12-17T08:47:32.159Z,1018.34
2017-12-17T08:49:26.107Z,1018.37
2017-12-17T08:50:25.634Z,1018.40
2017-12-17T08:52:20.035Z,1018.36
2017-12-17T08:53:20.057Z,1018.40
2017-12-17T08:55:13.484Z,1018.38
2017-12-17T08:56:13.477Z,1018.38
2017-12-17T08:58:06.922Z,1018.37
2017-12-17T08:59:07.436Z,1018.41
2017-12-17T09:01:01.849Z,1018.46
2017-12-17T09:02:01.319Z,1018.41
2017-12-17T09:03:55.757Z,1018.48
2017-12-17T09:04:56.269Z,1018.47
2017-12-17T09:06:50.681Z,1018.51
2017-12-17T09:07:50.171Z,1018.55
2017-12-17T09:09:44.635Z,1018.56
2017-12-17T09:10:45.133Z,1018.53
2017-12-17T09:12:38.027Z,1018.58
2017-12-17T09:13:38.032Z,1018.59
2017-12-17T09:15:31.481Z,1018.58
2017-12-17T09:16:31.479Z,1018.57
2017-12-17T09:18:26.422Z,1018.60
2017-12-17T09:19:25.898Z,1018.66
2017-12-17T09:21:20.307Z,1018.65
2017-12-17T09:22:20.317Z,1018.67
2017-12-17T09:24:14.263Z,1018.70
2017-12-17T09:25:13.746Z,1018.72
2017-12-17T09:27:07.701Z,1018.77
2017-12-17T09:28:07.160Z,1018.75
2017-12-17T09:30:01.579Z,1018.76
2017-12-17T09:31:01.566Z,1018.80
2017-12-17T09:32:54.987Z,1018.78
2017-12-17T09:33:55.522Z,1018.79
2017-12-17T09:35:49.432Z,1018.79
2017-12-17T09:36:49.419Z,1018.79
2017-12-17T09:38:43.886Z,1018.87
2017-12-17T09:39:43.901Z,1018.87
2017-12-17T09:41:38.844Z,1018.87
2017-12-17T09:42:38.300Z,1018.89
2017-12-17T09:44:33.243Z,1018.91
2017-12-17T09:45:32.719Z,1018.93
2017-12-17T09:47:26.160Z,1018.92
2017-12-17T09:48:26.152Z,1018.95
2017-12-17T09:50:21.116Z,1018.94
2017-12-17T09:51:20.595Z,1018.95
2017-12-17T09:53:15.055Z,1018.92
2017-12-17T09:54:15.139Z,1018.97
2017-12-17T09:56:09.984Z,1019.01
2017-12-17T09:57:09.453Z,1019.02
2017-12-17T09:59:03.897Z,1019.02
2017-12-17T10:00:03.891Z,1019.02
2017-12-17T10:01:57.323Z,1019.01
2017-12-17T10:02:57.297Z,1019.01
2017-12-17T10:04:50.753Z,1019.06
2017-12-17T10:05:50.740Z,1019.05
2017-12-17T10:07:47.389Z,1019.04
2017-12-17T10:08:47.382Z,1019.01
2017-12-17T10:10:42.251Z,1019.04
2017-12-17T10:11:41.778Z,1019.03
2017-12-17T10:13:35.724Z,1019.02
2017-12-17T10:14:35.195Z,1019.04
2017-12-17T10:16:29.149Z,1019.01
2017-12-17T10:17:28.636Z,1019.00
2017-12-17T10:19:23.573Z,1019.02
2017-12-17T10:20:23.599Z,1019.06
2017-12-17T10:22:16.471Z,1019.03
2017-12-17T10:23:17.012Z,1019.02
2017-12-17T10:25:10.919Z,1019.01
2017-12-17T10:26:11.422Z,1019.03
2017-12-17T10:28:05.852Z,1019.06
2017-12-17T10:29:05.337Z,1019.07
2017-12-17T10:30:58.771Z,1019.04
2017-12-17T10:31:58.730Z,1019.02
2017-12-17T10:33:53.180Z,1019.02
2017-12-17T10:34:53.174Z,1019.04
2017-12-17T10:36:46.617Z,1018.99
2017-12-17T10:37:47.122Z,1019.03
2017-12-17T10:39:41.045Z,1019.02
2017-12-17T10:40:41.556Z,1019.03
2017-12-17T10:42:34.977Z,1019.03
2017-12-17T10:43:34.474Z,1019.02
2017-12-17T10:45:29.442Z,1019.05
2017-12-17T10:46:28.877Z,1019.03
2017-12-17T10:48:24.852Z,1019.02
2017-12-17T10:49:24.800Z,1019.02
2017-12-17T10:51:21.538Z,1019.02
2017-12-17T10:52:19.362Z,1019.01
2017-12-17T10:54:15.322Z,1019.07
2017-12-17T10:55:13.800Z,1019.06
2017-12-17T10:57:08.244Z,1019.02
2017-12-17T10:58:08.207Z,1019.03
2017-12-17T11:00:02.661Z,1019.09
2017-12-17T11:01:01.635Z,1019.06
2017-12-17T11:02:55.127Z,1019.09
2017-12-17T11:03:55.102Z,1019.13
2017-12-17T11:05:48.559Z,1019.20
2017-12-17T11:06:48.569Z,1019.13
2017-12-17T11:08:43.023Z,1019.18
2017-12-17T11:09:43.516Z,1019.13
2017-12-17T11:11:38.967Z,1019.15
2017-12-17T11:12:37.946Z,1019.17
2017-12-17T11:14:31.914Z,1019.14
2017-12-17T11:15:31.882Z,1019.12
2017-12-17T11:17:25.314Z,1019.13
2017-12-17T11:18:25.304Z,1019.16
2017-12-17T11:20:19.753Z,1019.13
2017-12-17T11:21:18.748Z,1019.11
2017-12-17T11:23:13.222Z,1019.09
2017-12-17T11:24:13.710Z,1019.13
2017-12-17T11:26:06.693Z,1019.09
2017-12-17T11:27:06.661Z,1019.08
2017-12-17T11:29:01.094Z,1019.06
2017-12-17T11:30:01.099Z,1019.06
2017-12-17T11:31:55.534Z,1018.99
2017-12-17T11:32:56.038Z,1019.02
2017-12-17T11:34:51.904Z,1019.01
2017-12-17T11:35:49.968Z,1019.00
2017-12-17T11:37:44.405Z,1018.99
2017-12-17T11:38:44.372Z,1019.00
2017-12-17T11:40:38.329Z,1019.02
2017-12-17T11:41:37.782Z,1018.99
2017-12-17T11:43:32.730Z,1018.96
2017-12-17T11:44:31.213Z,1018.97
2017-12-17T11:46:25.643Z,1018.96
2017-12-17T11:47:26.159Z,1018.95
2017-12-17T11:49:20.101Z,1018.95
2017-12-17T11:50:20.105Z,1019.01
2017-12-17T11:52:13.492Z,1018.97
2017-12-17T11:53:13.491Z,1018.98
2017-12-17T11:55:08.935Z,1018.98
2017-12-17T11:56:08.455Z,1018.96
2017-12-17T11:58:02.353Z,1018.96
2017-12-17T11:59:02.455Z,1018.93
2017-12-17T12:00:57.306Z,1019.03
2017-12-17T12:01:56.765Z,1019.01
2017-12-17T12:03:50.207Z,1018.99
2017-12-17T12:04:50.702Z,1019.00
2017-12-17T12:06:44.643Z,1018.99
2017-12-17T12:07:44.611Z,1018.99
2017-12-17T12:09:38.041Z,1018.98
2017-12-17T12:10:38.044Z,1018.92
2017-12-17T12:12:31.520Z,1018.95
2017-12-17T12:13:31.533Z,1018.94
2017-12-17T12:15:26.471Z,1018.93
2017-12-17T12:16:25.954Z,1018.90
2017-12-17T12:18:20.430Z,1018.93
2017-12-17T12:19:20.898Z,1018.93
2017-12-17T12:21:13.781Z,1018.88
2017-12-17T12:22:14.334Z,1018.85
2017-12-17T12:24:08.745Z,1018.91
2017-12-17T12:25:08.747Z,1018.89
2017-12-17T12:27:01.706Z,1018.88
2017-12-17T12:28:01.728Z,1018.91
2017-12-17T12:29:55.163Z,1018.88
2017-12-17T12:30:55.140Z,1018.89
2017-12-17T12:32:49.094Z,1018.86
2017-12-17T12:33:48.563Z,1018.86
2017-12-17T12:35:41.994Z,1018.86
2017-12-17T12:36:42.010Z,1018.92
2017-12-17T12:38:36.447Z,1018.88
2017-12-17T12:39:36.385Z,1018.90
2017-12-17T12:41:28.852Z,1018.90
2017-12-17T12:42:28.859Z,1018.88
2017-12-17T12:44:22.822Z,1018.92
2017-12-17T12:45:22.805Z,1018.93
2017-12-17T12:47:15.762Z,1018.91
2017-12-17T12:48:16.240Z,1018.91
2017-12-17T12:50:10.174Z,1018.94
2017-12-17T12:51:10.695Z,1018.94
2017-12-17T12:53:04.600Z,1018.92
2017-12-17T12:54:04.589Z,1018.95
2017-12-17T12:55:58.538Z,1018.96
2017-12-17T12:56:58.027Z,1018.96
2017-12-17T12:58:51.443Z,1018.99
2017-12-17T12:59:51.959Z,1018.94
2017-12-17T13:01:44.916Z,1018.97
2017-12-17T13:02:44.853Z,1018.98
2017-12-17T13:04:39.235Z,1018.99
2017-12-17T13:05:38.299Z,1019.05
2017-12-17T13:07:31.767Z,1019.00
2017-12-17T13:08:31.728Z,1019.00
2017-12-17T13:10:26.671Z,1019.02
2017-12-17T13:11:26.142Z,1019.01
2017-12-17T13:13:21.366Z,1019.01
2017-12-17T13:14:21.088Z,1019.00
2017-12-17T13:16:13.996Z,1019.05
2017-12-17T13:17:14.106Z,1019.07
2017-12-17T13:19:08.416Z,1019.08
2017-12-17T13:20:08.440Z,1019.09
2017-12-17T13:22:02.854Z,1019.12
2017-12-17T13:23:02.865Z,1019.09
2017-12-17T13:24:56.321Z,1019.09
2017-12-17T13:25:57.226Z,1019.09
2017-12-17T13:27:50.725Z,1019.12
2017-12-17T13:28:50.696Z,1019.13
2017-12-17T13:30:45.137Z,1019.09
2017-12-17T13:31:45.118Z,1019.11
2017-12-17T13:33:38.532Z,1019.08
2017-12-17T13:34:38.521Z,1019.15
2017-12-17T13:36:32.991Z,1019.18
2017-12-17T13:37:31.941Z,1019.19
2017-12-17T13:39:26.426Z,1019.18
2017-12-17T13:40:26.367Z,1019.22
2017-12-17T13:42:20.814Z,1019.20
2017-12-17T13:43:20.873Z,1019.20
2017-12-17T13:45:15.250Z,1019.20
2017-12-17T13:46:15.262Z,1019.15
2017-12-17T13:48:08.700Z,1019.22
2017-12-17T13:49:09.653Z,1019.20
2017-12-17T13:51:05.833Z,1019.22
2017-12-17T13:52:03.188Z,1019.22
2017-12-17T13:53:57.580Z,1019.23
2017-12-17T13:54:57.652Z,1019.28
2017-12-17T13:56:52.026Z,1019.30
2017-12-17T13:57:51.003Z,1019.30
2017-12-17T13:59:45.461Z,1019.37
2017-12-17T14:00:45.951Z,1019.31
2017-12-17T14:02:40.373Z,1019.37
2017-12-17T14:03:38.959Z,1019.39
2017-12-17T14:05:33.942Z,1019.41
2017-12-17T14:08:02.897Z,1019.41
2017-12-17T14:10:16.167Z,1019.40
2017-12-17T14:11:15.504Z,1019.42
2017-12-17T14:13:10.433Z,1019.43
2017-12-17T14:14:10.865Z,1019.40
2017-12-17T14:16:05.887Z,1019.46
2017-12-17T14:17:05.874Z,1019.49
2017-12-17T14:19:00.815Z,1019.47
2017-12-17T14:20:00.944Z,1019.45
2017-12-17T14:21:56.224Z,1019.51
2017-12-17T14:22:53.732Z,1019.51
2017-12-17T14:24:47.689Z,1019.47
2017-12-17T14:25:47.145Z,1019.54
2017-12-17T14:27:42.674Z,1019.49
2017-12-17T14:28:44.039Z,1019.51
2017-12-17T14:30:36.848Z,1019.52
2017-12-17T14:31:37.807Z,1019.54
2017-12-17T14:33:30.793Z,1019.58
2017-12-17T14:34:30.291Z,1019.50
2017-12-17T14:36:24.754Z,1019.56
2017-12-17T14:37:23.697Z,1019.59
2017-12-17T14:39:18.655Z,1019.60
2017-12-17T14:40:18.132Z,1019.59
2017-12-17T14:42:12.147Z,1019.63
2017-12-17T14:43:11.594Z,1019.62
2017-12-17T14:45:06.044Z,1019.66
2017-12-17T14:46:06.526Z,1019.68
2017-12-17T14:48:00.506Z,1019.70
2017-12-17T14:49:00.981Z,1019.70
2017-12-17T14:50:55.411Z,1019.74
2017-12-17T14:51:54.413Z,1019.73
2017-12-17T14:53:47.834Z,1019.78
2017-12-17T14:54:49.823Z,1019.77
2017-12-17T14:56:41.727Z,1019.83
2017-12-17T14:57:40.758Z,1019.87
2017-12-17T14:59:34.207Z,1019.87
2017-12-17T15:00:34.174Z,1019.91
2017-12-17T15:02:28.597Z,1019.91
2017-12-17T15:03:29.144Z,1019.91
2017-12-17T15:05:23.548Z,1019.89
2017-12-17T15:06:24.011Z,1019.87
2017-12-17T15:08:16.469Z,1019.93
2017-12-17T15:09:16.439Z,1019.95
2017-12-17T15:11:10.396Z,1019.99
2017-12-17T15:12:09.872Z,1020.02
2017-12-17T15:14:04.821Z,1020.05
2017-12-17T15:15:04.294Z,1020.10
2017-12-17T15:16:59.238Z,1020.08
2017-12-17T15:17:59.246Z,1020.06
2017-12-17T15:19:53.225Z,1020.04
2017-12-17T15:20:53.178Z,1020.04
2017-12-17T15:22:46.578Z,1020.00
2017-12-17T15:23:46.606Z,1019.98
2017-12-17T15:25:40.092Z,1019.99
2017-12-17T15:26:40.005Z,1020.02
2017-12-17T15:28:34.422Z,1020.01
2017-12-17T15:29:34.944Z,1019.98
2017-12-17T15:31:28.857Z,1020.00
2017-12-17T15:32:28.841Z,1020.00
2017-12-17T15:34:23.250Z,1020.01
2017-12-17T15:35:23.791Z,1020.03
2017-12-17T15:37:17.710Z,1020.04
2017-12-17T15:38:17.695Z,1020.04
2017-12-17T15:40:12.636Z,1019.98
2017-12-17T15:41:12.110Z,1019.98
2017-12-17T15:43:06.062Z,1019.98
2017-12-17T15:44:06.064Z,1019.94
2017-12-17T15:45:59.984Z,1019.93
2017-12-17T15:46:58.986Z,1019.89
2017-12-17T15:48:52.444Z,1019.87
2017-12-17T15:49:52.411Z,1019.87
2017-12-17T15:51:46.855Z,1019.86
2017-12-17T15:52:46.364Z,1019.86
2017-12-17T15:54:40.272Z,1019.91
2017-12-17T15:55:40.255Z,1019.89
2017-12-17T15:57:34.204Z,1019.91
2017-12-17T15:58:33.675Z,1019.96
2017-12-17T16:00:27.141Z,1019.96
2017-12-17T16:01:27.642Z,1019.94
2017-12-17T16:03:20.534Z,1019.93
2017-12-17T16:04:20.497Z,1019.96
2017-12-17T16:06:14.955Z,1019.93
2017-12-17T16:07:13.919Z,1019.91
2017-12-17T16:09:07.414Z,1019.93
2017-12-17T16:10:07.870Z,1019.88
2017-12-17T16:12:01.279Z,1019.86
2017-12-17T16:13:00.780Z,1019.85
2017-12-17T16:14:54.724Z,1019.86
2017-12-17T16:15:54.210Z,1019.82
2017-12-17T16:17:48.639Z,1019.81
2017-12-17T16:18:48.651Z,1019.82
2017-12-17T16:20:43.054Z,1019.75
2017-12-17T16:21:43.594Z,1019.77
2017-12-17T16:23:36.518Z,1019.75
2017-12-17T16:24:36.475Z,1019.71
2017-12-17T16:26:31.416Z,1019.72
2017-12-17T16:27:30.888Z,1019.75
2017-12-17T16:29:25.341Z,1019.71
2017-12-17T16:30:25.387Z,1019.72
2017-12-17T16:32:19.764Z,1019.72
2017-12-17T16:33:19.747Z,1019.68
2017-12-17T16:35:14.194Z,1019.70
2017-12-17T16:36:14.191Z,1019.70
2017-12-17T16:38:08.664Z,1019.72
2017-12-17T16:39:08.631Z,1019.73
2017-12-17T16:41:04.123Z,1019.68
2017-12-17T16:42:02.023Z,1019.68
2017-12-17T16:43:55.495Z,1019.69
2017-12-17T16:44:55.977Z,1019.67
2017-12-17T16:46:49.935Z,1019.70
2017-12-17T16:47:49.890Z,1019.67
2017-12-17T16:49:43.309Z,1019.72
2017-12-17T16:50:43.854Z,1019.76
2017-12-17T16:52:37.784Z,1019.75
2017-12-17T16:53:37.743Z,1019.71
2017-12-17T16:55:33.193Z,1019.76
2017-12-17T16:56:32.190Z,1019.80
2017-12-17T16:58:26.651Z,1019.73
2017-12-17T16:59:26.600Z,1019.75
2017-12-17T17:01:20.049Z,1019.75
2017-12-17T17:02:20.564Z,1019.80
2017-12-17T17:04:13.463Z,1019.76
2017-12-17T17:05:13.948Z,1019.77
2017-12-17T17:07:08.380Z,1019.76
2017-12-17T17:08:06.843Z,1019.77
2017-12-17T17:10:00.284Z,1019.77
2017-12-17T17:11:00.272Z,1019.74
2017-12-17T17:12:54.217Z,1019.77
2017-12-17T17:13:53.698Z,1019.77
2017-12-17T17:15:48.128Z,1019.75
2017-12-17T17:16:48.133Z,1019.72
2017-12-17T17:18:42.590Z,1019.71
2017-12-17T17:19:41.544Z,1019.75
2017-12-17T17:21:35.989Z,1019.73
2017-12-17T17:22:35.976Z,1019.74
2017-12-17T17:24:30.421Z,1019.71
2017-12-17T17:25:29.925Z,1019.73
2017-12-17T17:27:23.800Z,1019.68
2017-12-17T17:28:23.809Z,1019.70
2017-12-17T17:30:18.260Z,1019.60
2017-12-17T17:31:18.262Z,1019.63
2017-12-17T17:33:11.729Z,1019.55
2017-12-17T17:34:11.669Z,1019.59